Time;durP1;ratioP1;P1;durP2;ratioP2;P2;SDS_P1;SDS_P2;PMS_P1;PMS_P2;Temp;Humidity;BMP_temperature;BMP_pressure;BME280_temperature;BME280_humidity;BME280_pressure;Samples;Min_cycle;Max_cycle;Signal;HPM_P1;HPM_P2
2021/01/22 00:00:22;;;;;;;1.38;1.27;;;;;;;;;;1040101;28;20071;-87
2021/01/22 00:00:53;;;;;;;0.55;0.55;;;;;;;;;;1044394;28;20080;-85
2021/01/22 00:01:24;;;;;;;2.00;1.45;;;;;;;;;;1036725;28;20046;-91
2021/01/22 00:01:56;;;;;;;1.92;1.75;;;;;;;;;;1040481;28;20046;-91
2021/01/22 00:02:28;;;;;;;1.50;1.40;;;;;;;;;;1032337;28;20046;-89
2021/01/22 00:02:59;;;;;;;1.50;1.40;;;;;;;;;;1041250;28;20075;-86
2021/01/22 00:03:30;;;;;;;1.63;1.52;;;;;;;;;;1048753;28;20048;-92
2021/01/22 00:04:02;;;;;;;1.05;0.90;;;;;;;;;;1040496;28;20046;-91
2021/01/22 00:04:33;;;;;;;2.45;1.20;;;;;;;;;;1032263;28;20189;-88
2021/01/22 00:05:08;;;;;;;1.58;1.48;;;;;;;;;;1029310;28;20061;-90
2021/01/22 00:05:39;;;;;;;1.90;1.80;;;;;;;;;;1043976;28;20102;-89
2021/01/22 00:06:11;;;;;;;2.47;1.33;;;;;;;;;;1037324;28;20107;-89
2021/01/22 00:06:44;;;;;;;1.58;1.10;;;;;;;;;;1036242;28;20108;-89
2021/01/22 00:07:15;;;;;;;2.58;1.60;;;;;;;;;;1027160;28;20055;-89
2021/01/22 00:07:48;;;;;;;1.50;1.40;;;;;;;;;;1033051;28;20046;-89
2021/01/22 00:08:19;;;;;;;2.50;2.13;;;;;;;;;;1044713;28;20127;-91
2021/01/22 00:08:50;;;;;;;1.80;1.70;;;;;;;;;;1042965;28;20077;-92
2021/01/22 00:09:21;;;;;;;2.83;2.08;;;;;;;;;;1040516;28;20046;-91
2021/01/22 00:09:52;;;;;;;2.92;2.38;;;;;;;;;;1032398;28;20054;-93
2021/01/22 00:10:23;;;;;;;1.95;1.77;;;;;;;;;;1036337;28;20045;-90
2021/01/22 00:10:54;;;;;;;2.22;2.13;;;;;;;;;;1032156;28;20074;-88
2021/01/22 00:11:25;;;;;;;0.73;0.73;;;;;;;;;;1032228;28;20050;-87
2021/01/22 00:11:57;;;;;;;1.50;1.38;;;;;;;;;;1036401;28;20050;-89
2021/01/22 00:12:28;;;;;;;2.03;1.92;;;;;;;;;;1040075;28;20085;-83
2021/01/22 00:12:59;;;;;;;1.02;0.93;;;;;;;;;;1045732;28;20670;-90
2021/01/22 00:13:30;;;;;;;1.42;1.08;;;;;;;;;;1040307;28;20045;-86
2021/01/22 00:14:01;;;;;;;0.90;0.90;;;;;;;;;;1038702;28;20510;-87
2021/01/22 00:14:33;;;;;;;3.70;2.13;;;;;;;;;;1033988;28;20053;-90
2021/01/22 00:15:04;;;;;;;1.90;1.80;;;;;;;;;;1032266;28;20104;-92
2021/01/22 00:15:36;;;;;;;1.83;1.73;;;;;;;;;;1036335;28;20057;-88
2021/01/22 00:16:07;;;;;;;2.08;1.80;;;;;;;;;;1046661;28;20570;-91
2021/01/22 00:16:38;;;;;;;3.85;2.33;;;;;;;;;;1040522;28;20410;-91
2021/01/22 00:17:09;;;;;;;2.50;2.30;;;;;;;;;;1040603;28;20041;-91
2021/01/22 00:17:42;;;;;;;1.50;1.40;;;;;;;;;;1039665;28;20114;-89
2021/01/22 00:18:14;;;;;;;2.28;1.75;;;;;;;;;;1040693;28;20132;-92
2021/01/22 00:18:46;;;;;;;1.70;1.60;;;;;;;;;;1044522;28;20472;-89
2021/01/22 00:19:17;;;;;;;3.13;2.00;;;;;;;;;;1040175;28;20049;-92
2021/01/22 00:19:48;;;;;;;2.28;2.08;;;;;;;;;;1036406;28;20165;-93
2021/01/22 00:20:19;;;;;;;1.85;1.33;;;;;;;;;;1044676;28;20096;-89
2021/01/22 00:20:50;;;;;;;0.85;0.85;;;;;;;;;;1042818;28;20049;-91
2021/01/22 00:21:21;;;;;;;1.27;1.17;;;;;;;;;;1036562;28;20053;-88
2021/01/22 00:21:52;;;;;;;1.60;1.50;;;;;;;;;;1036351;28;20128;-92
2021/01/22 00:22:23;;;;;;;1.70;1.60;;;;;;;;;;1037772;28;20049;-92
2021/01/22 00:22:54;;;;;;;3.13;1.30;;;;;;;;;;1032208;28;20082;-87
2021/01/22 00:23:27;;;;;;;1.15;1.05;;;;;;;;;;1028085;28;20054;-87
2021/01/22 00:23:58;;;;;;;2.08;1.60;;;;;;;;;;1032481;28;20062;-92
2021/01/22 00:24:29;;;;;;;1.85;1.75;;;;;;;;;;1036239;28;20080;-90
2021/01/22 00:25:00;;;;;;;2.20;1.52;;;;;;;;;;1040468;28;20107;-91
2021/01/22 00:25:31;;;;;;;1.27;1.20;;;;;;;;;;1036706;28;20050;-91
2021/01/22 00:26:04;;;;;;;1.70;1.30;;;;;;;;;;1039790;28;20536;-89
2021/01/22 00:26:35;;;;;;;1.08;1.08;;;;;;;;;;1036252;28;20056;-88
2021/01/22 00:27:06;;;;;;;1.20;1.10;;;;;;;;;;1036740;28;20137;-91
2021/01/22 00:27:37;;;;;;;3.13;1.92;;;;;;;;;;1040645;28;20144;-93
2021/01/22 00:28:08;;;;;;;1.10;1.00;;;;;;;;;;1039980;28;20143;-90
2021/01/22 00:28:39;;;;;;;1.35;1.25;;;;;;;;;;1040704;28;20079;-86
2021/01/22 00:29:11;;;;;;;1.67;1.42;;;;;;;;;;1040307;28;20042;-88
2021/01/22 00:29:43;;;;;;;1.48;0.95;;;;;;;;;;1044418;28;20053;-90
2021/01/22 00:30:14;;;;;;;1.02;0.93;;;;;;;;;;1036134;28;20156;-87
2021/01/22 00:30:45;;;;;;;1.45;1.35;;;;;;;;;;1037923;28;20058;-85
2021/01/22 00:31:16;;;;;;;1.60;1.45;;;;;;;;;;1048606;28;20044;-89
2021/01/22 00:31:47;;;;;;;1.42;1.33;;;;;;;;;;1052711;28;20097;-87
2021/01/22 00:32:19;;;;;;;2.70;1.55;;;;;;;;;;1051437;28;20074;-89
2021/01/22 00:32:50;;;;;;;2.42;1.45;;;;;;;;;;1043327;28;20056;-89
2021/01/22 00:33:21;;;;;;;1.52;1.42;;;;;;;;;;1036712;28;20068;-87
2021/01/22 00:33:53;;;;;;;1.13;1.02;;;;;;;;;;1039463;28;20045;-88
2021/01/22 00:34:24;;;;;;;1.35;1.25;;;;;;;;;;1029941;28;20096;-90
2021/01/22 00:34:55;;;;;;;1.48;1.35;;;;;;;;;;1032737;28;20133;-88
2021/01/22 00:35:26;;;;;;;0.75;0.75;;;;;;;;;;1039398;28;20046;-87
2021/01/22 00:35:57;;;;;;;2.08;1.02;;;;;;;;;;1037056;28;20522;-86
2021/01/22 00:36:28;;;;;;;1.40;1.30;;;;;;;;;;1032180;28;20169;-91
2021/01/22 00:36:59;;;;;;;2.67;1.48;;;;;;;;;;1036273;28;20057;-90
2021/01/22 00:37:30;;;;;;;1.42;1.33;;;;;;;;;;1044199;28;20554;-89
2021/01/22 00:38:01;;;;;;;1.40;1.30;;;;;;;;;;1044219;28;20119;-90
2021/01/22 00:38:32;;;;;;;1.30;1.20;;;;;;;;;;1036204;28;20521;-87
2021/01/22 00:39:04;;;;;;;1.30;1.20;;;;;;;;;;1036198;28;20049;-87
2021/01/22 00:39:35;;;;;;;1.42;1.33;;;;;;;;;;1031961;28;20088;-88
2021/01/22 00:40:07;;;;;;;2.47;1.73;;;;;;;;;;1032193;28;20057;-89
2021/01/22 00:40:39;;;;;;;2.72;1.50;;;;;;;;;;1036317;28;20114;-89
2021/01/22 00:41:10;;;;;;;2.17;1.98;;;;;;;;;;1036290;28;20133;-91
2021/01/22 00:41:42;;;;;;;1.70;1.60;;;;;;;;;;1044663;28;20056;-90
2021/01/22 00:42:13;;;;;;;1.80;1.70;;;;;;;;;;1040176;28;20164;-91
2021/01/22 00:42:43;;;;;;;2.20;1.30;;;;;;;;;;1040234;28;20061;-88
2021/01/22 00:43:15;;;;;;;2.30;1.33;;;;;;;;;;1032240;28;20050;-92
2021/01/22 00:43:46;;;;;;;2.70;2.08;;;;;;;;;;1044359;28;20084;-86
2021/01/22 00:44:17;;;;;;;1.58;1.33;;;;;;;;;;1043940;28;20131;-85
2021/01/22 00:44:48;;;;;;;1.58;1.13;;;;;;;;;;1039841;28;20046;-84
2021/01/22 00:45:19;;;;;;;1.67;1.52;;;;;;;;;;1033778;28;20050;-90
2021/01/22 00:45:50;;;;;;;2.63;1.75;;;;;;;;;;1036614;28;20113;-88
2021/01/22 00:46:21;;;;;;;1.48;1.27;;;;;;;;;;1036096;28;20057;-86
2021/01/22 00:46:52;;;;;;;1.63;1.33;;;;;;;;;;1040159;28;20411;-86
2021/01/22 00:47:23;;;;;;;1.15;1.05;;;;;;;;;;1036169;28;20115;-89
2021/01/22 00:47:55;;;;;;;2.00;1.67;;;;;;;;;;1040261;28;20514;-90
2021/01/22 00:48:26;;;;;;;2.22;1.55;;;;;;;;;;1040348;28;20387;-89
2021/01/22 00:48:57;;;;;;;2.00;1.80;;;;;;;;;;1040415;28;20046;-88
2021/01/22 00:49:28;;;;;;;2.00;1.90;;;;;;;;;;1040228;28;20132;-91
2021/01/22 00:49:59;;;;;;;2.28;2.08;;;;;;;;;;1032158;28;20140;-90
2021/01/22 00:50:31;;;;;;;2.83;2.20;;;;;;;;;;1032152;28;20060;-89
2021/01/22 00:51:03;;;;;;;2.22;2.00;;;;;;;;;;1040327;28;20053;-91
2021/01/22 00:51:34;;;;;;;2.30;2.08;;;;;;;;;;1047688;28;20094;-90
2021/01/22 00:52:05;;;;;;;2.70;1.80;;;;;;;;;;1044057;28;20052;-89
2021/01/22 00:52:36;;;;;;;1.80;1.70;;;;;;;;;;1037599;28;20528;-90
2021/01/22 00:53:07;;;;;;;2.35;1.60;;;;;;;;;;1044103;28;20041;-87
2021/01/22 00:53:39;;;;;;;1.77;1.35;;;;;;;;;;1037020;28;20628;-88
2021/01/22 00:54:10;;;;;;;3.42;2.25;;;;;;;;;;1040389;28;20110;-90
2021/01/22 00:54:42;;;;;;;1.67;1.55;;;;;;;;;;1033551;28;20545;-87
2021/01/22 00:55:14;;;;;;;1.63;1.40;;;;;;;;;;1038857;28;20092;-87
2021/01/22 00:55:44;;;;;;;1.70;1.60;;;;;;;;;;1040305;28;20168;-90
2021/01/22 00:56:16;;;;;;;1.80;1.70;;;;;;;;;;1040056;28;20045;-88
2021/01/22 00:56:47;;;;;;;2.05;1.45;;;;;;;;;;1031713;28;20073;-90
2021/01/22 00:57:18;;;;;;;1.17;1.08;;;;;;;;;;1040351;28;20132;-89
2021/01/22 00:57:49;;;;;;;1.35;1.25;;;;;;;;;;1040218;28;20049;-86
2021/01/22 00:58:20;;;;;;;1.60;1.23;;;;;;;;;;1041981;28;20041;-87
2021/01/22 00:58:51;;;;;;;1.73;1.63;;;;;;;;;;1036552;28;20132;-90
2021/01/22 00:59:22;;;;;;;2.00;1.02;;;;;;;;;;1036720;28;20053;-88
2021/01/22 00:59:54;;;;;;;1.33;1.23;;;;;;;;;;1035981;28;20061;-89
2021/01/22 01:00:25;;;;;;;0.93;0.93;;;;;;;;;;1040282;28;20080;-84
2021/01/22 01:00:56;;;;;;;1.30;1.20;;;;;;;;;;1036493;28;20506;-88
2021/01/22 01:01:27;;;;;;;1.45;1.10;;;;;;;;;;1036557;28;20056;-86
2021/01/22 01:01:58;;;;;;;1.35;1.25;;;;;;;;;;1033355;28;20042;-90
2021/01/22 01:02:30;;;;;;;5.03;1.95;;;;;;;;;;1036166;28;20053;-91
2021/01/22 01:03:01;;;;;;;1.60;1.42;;;;;;;;;;1043780;28;20206;-90
2021/01/22 01:03:33;;;;;;;1.50;1.38;;;;;;;;;;1040222;28;20087;-90
2021/01/22 01:04:04;;;;;;;1.67;1.55;;;;;;;;;;1040341;28;20045;-91
2021/01/22 01:04:37;;;;;;;1.73;1.60;;;;;;;;;;1036782;28;20081;-89
2021/01/22 01:05:08;;;;;;;1.40;1.30;;;;;;;;;;1040925;28;20045;-89
2021/01/22 01:05:39;;;;;;;1.63;1.30;;;;;;;;;;1043593;28;20055;-90
2021/01/22 01:06:10;;;;;;;2.10;1.98;;;;;;;;;;1040368;28;20057;-90
2021/01/22 01:06:42;;;;;;;1.45;1.23;;;;;;;;;;1040106;28;20053;-91
2021/01/22 01:07:13;;;;;;;3.28;1.80;;;;;;;;;;1036013;28;20121;-90
2021/01/22 01:07:44;;;;;;;1.48;1.38;;;;;;;;;;1028188;28;20587;-89
2021/01/22 01:08:15;;;;;;;3.03;1.65;;;;;;;;;;1031381;28;20502;-90
2021/01/22 01:08:46;;;;;;;3.20;1.70;;;;;;;;;;1032164;28;20054;-89
2021/01/22 01:09:17;;;;;;;2.22;1.63;;;;;;;;;;1040367;28;20533;-89
2021/01/22 01:09:48;;;;;;;1.60;1.50;;;;;;;;;;1045666;28;20060;-89
2021/01/22 01:10:19;;;;;;;1.35;1.25;;;;;;;;;;1048541;28;20066;-89
2021/01/22 01:10:50;;;;;;;2.55;1.60;;;;;;;;;;1040214;28;20049;-89
2021/01/22 01:11:21;;;;;;;2.85;1.52;;;;;;;;;;1036364;28;20068;-87
2021/01/22 01:11:52;;;;;;;2.33;1.77;;;;;;;;;;1032428;28;20562;-89
2021/01/22 01:12:23;;;;;;;1.95;1.70;;;;;;;;;;1041643;28;20120;-89
2021/01/22 01:12:54;;;;;;;2.63;2.03;;;;;;;;;;1041807;28;20069;-92
2021/01/22 01:13:25;;;;;;;1.73;1.63;;;;;;;;;;1040375;28;20153;-89
2021/01/22 01:13:56;;;;;;;1.48;1.38;;;;;;;;;;1037929;28;20049;-87
2021/01/22 01:14:27;;;;;;;2.63;1.20;;;;;;;;;;1039205;28;20092;-87
2021/01/22 01:14:58;;;;;;;0.95;0.95;;;;;;;;;;1032147;28;20089;-86
2021/01/22 01:15:29;;;;;;;2.58;1.55;;;;;;;;;;1036080;28;20395;-90
2021/01/22 01:16:00;;;;;;;2.83;1.38;;;;;;;;;;1032096;28;20538;-90
2021/01/22 01:16:31;;;;;;;1.88;1.77;;;;;;;;;;1032467;28;20137;-90
2021/01/22 01:17:02;;;;;;;2.15;1.92;;;;;;;;;;1032663;28;20522;-90
2021/01/22 01:17:35;;;;;;;2.28;1.83;;;;;;;;;;1035729;28;20046;-91
2021/01/22 01:18:06;;;;;;;1.65;1.40;;;;;;;;;;1035926;28;20046;-90
2021/01/22 01:18:37;;;;;;;1.90;1.80;;;;;;;;;;1044380;28;20136;-87
2021/01/22 01:19:09;;;;;;;3.67;2.35;;;;;;;;;;1036002;28;20069;-91
2021/01/22 01:19:40;;;;;;;1.77;1.67;;;;;;;;;;1040418;28;20083;-91
2021/01/22 01:20:12;;;;;;;2.92;1.70;;;;;;;;;;1040392;28;20119;-90
2021/01/22 01:20:43;;;;;;;2.13;1.92;;;;;;;;;;1040260;28;20049;-90
2021/01/22 01:21:14;;;;;;;1.95;1.65;;;;;;;;;;1040249;28;20079;-90
2021/01/22 01:21:45;;;;;;;2.00;1.60;;;;;;;;;;1040184;28;20055;-91
2021/01/22 01:22:16;;;;;;;1.90;1.70;;;;;;;;;;1040410;28;20046;-91
2021/01/22 01:22:47;;;;;;;1.95;1.85;;;;;;;;;;1036690;28;20645;-90
2021/01/22 01:23:19;;;;;;;2.90;2.00;;;;;;;;;;1040310;28;20521;-90
2021/01/22 01:23:50;;;;;;;2.05;1.80;;;;;;;;;;1036097;28;20527;-92
2021/01/22 01:24:21;;;;;;;1.73;1.63;;;;;;;;;;1044059;28;20504;-89
2021/01/22 01:24:52;;;;;;;2.13;1.92;;;;;;;;;;1036239;28;20172;-91
2021/01/22 01:25:24;;;;;;;2.33;2.10;;;;;;;;;;1040785;28;20116;-91
2021/01/22 01:25:55;;;;;;;1.77;1.67;;;;;;;;;;1040541;28;20042;-89
2021/01/22 01:26:26;;;;;;;1.75;1.65;;;;;;;;;;1041271;28;20050;-90
2021/01/22 01:26:57;;;;;;;3.72;1.48;;;;;;;;;;1040309;28;20132;-90
2021/01/22 01:27:28;;;;;;;1.92;1.42;;;;;;;;;;1034848;28;20136;-89
2021/01/22 01:27:59;;;;;;;1.75;1.60;;;;;;;;;;1040308;28;20053;-89
2021/01/22 01:28:31;;;;;;;1.90;1.80;;;;;;;;;;1043798;28;20052;-91
2021/01/22 01:29:02;;;;;;;2.47;1.95;;;;;;;;;;1044130;28;20071;-90
2021/01/22 01:29:34;;;;;;;3.20;2.20;;;;;;;;;;1048627;28;20565;-91
2021/01/22 01:30:06;;;;;;;2.85;2.10;;;;;;;;;;1044487;28;20562;-91
2021/01/22 01:30:38;;;;;;;1.95;1.75;;;;;;;;;;1044058;28;20190;-91
2021/01/22 01:31:09;;;;;;;1.90;1.75;;;;;;;;;;1036251;28;20042;-91
2021/01/22 01:31:42;;;;;;;3.13;1.85;;;;;;;;;;1040356;28;20060;-91
2021/01/22 01:32:13;;;;;;;2.55;1.75;;;;;;;;;;1040177;28;20079;-90
2021/01/22 01:32:44;;;;;;;1.05;0.98;;;;;;;;;;1038601;28;20050;-89
2021/01/22 01:33:16;;;;;;;1.50;1.20;;;;;;;;;;1036255;28;20053;-89
2021/01/22 01:33:47;;;;;;;2.30;1.95;;;;;;;;;;1040300;28;20102;-91
2021/01/22 01:34:18;;;;;;;1.48;1.38;;;;;;;;;;1035338;28;20542;-89
2021/01/22 01:34:49;;;;;;;1.90;1.80;;;;;;;;;;1052054;28;20087;-89
2021/01/22 01:35:20;;;;;;;2.92;2.03;;;;;;;;;;1049365;28;20049;-89
2021/01/22 01:35:52;;;;;;;4.32;2.35;;;;;;;;;;1044748;28;20098;-92
2021/01/22 01:36:23;;;;;;;1.65;1.30;;;;;;;;;;1040305;28;20181;-88
2021/01/22 01:36:54;;;;;;;2.03;1.65;;;;;;;;;;1036475;28;20053;-90
2021/01/22 01:37:25;;;;;;;2.13;1.92;;;;;;;;;;1039866;28;20061;-91
2021/01/22 01:37:56;;;;;;;4.28;1.90;;;;;;;;;;1040574;28;20041;-91
2021/01/22 01:38:28;;;;;;;2.63;1.70;;;;;;;;;;1036704;28;20112;-92
2021/01/22 01:38:59;;;;;;;3.22;2.78;;;;;;;;;;1040488;28;20151;-92
2021/01/22 01:39:30;;;;;;;3.83;2.17;;;;;;;;;;1039702;28;20097;-91
2021/01/22 01:40:02;;;;;;;1.83;1.67;;;;;;;;;;1040354;28;20075;-89
2021/01/22 01:40:36;;;;;;;3.00;2.72;;;;;;;;;;1045126;28;20055;-87
2021/01/22 01:41:07;;;;;;;2.45;1.85;;;;;;;;;;1044154;28;20076;-92
2021/01/22 01:41:38;;;;;;;3.20;2.30;;;;;;;;;;1044382;28;20088;-91
2021/01/22 01:42:10;;;;;;;2.38;2.17;;;;;;;;;;1040048;28;20045;-90
2021/01/22 01:42:42;;;;;;;3.63;2.65;;;;;;;;;;1035971;28;20050;-89
2021/01/22 01:43:13;;;;;;;3.13;2.28;;;;;;;;;;1036218;28;20053;-90
2021/01/22 01:43:44;;;;;;;2.38;1.95;;;;;;;;;;1044341;28;20524;-89
2021/01/22 01:44:15;;;;;;;3.42;2.85;;;;;;;;;;1044457;28;20156;-90
2021/01/22 01:44:46;;;;;;;2.83;2.15;;;;;;;;;;1040701;28;20045;-91
2021/01/22 01:45:17;;;;;;;3.42;2.38;;;;;;;;;;1030235;28;20464;-88
2021/01/22 01:45:48;;;;;;;4.72;2.20;;;;;;;;;;1044414;28;20080;-90
2021/01/22 01:46:20;;;;;;;3.05;2.65;;;;;;;;;;1045870;28;20127;-89
2021/01/22 01:46:51;;;;;;;3.30;3.00;;;;;;;;;;1044347;28;20167;-92
2021/01/22 01:47:22;;;;;;;4.40;3.47;;;;;;;;;;1031836;28;20052;-91
2021/01/22 01:47:54;;;;;;;2.92;2.72;;;;;;;;;;1037546;28;20095;-93
2021/01/22 01:48:26;;;;;;;3.70;3.10;;;;;;;;;;1048516;28;20132;-90
2021/01/22 01:48:57;;;;;;;5.20;2.30;;;;;;;;;;1044190;28;20041;-90
2021/01/22 01:49:29;;;;;;;4.80;2.97;;;;;;;;;;1040308;28;20505;-91
2021/01/22 01:50:00;;;;;;;2.72;2.38;;;;;;;;;;1036234;28;20108;-91
2021/01/22 01:50:32;;;;;;;3.15;2.72;;;;;;;;;;1036109;28;20112;-91
2021/01/22 01:51:04;;;;;;;3.28;2.95;;;;;;;;;;1036112;28;20050;-88
2021/01/22 01:51:35;;;;;;;3.38;2.50;;;;;;;;;;1048188;28;20075;-90
2021/01/22 01:52:06;;;;;;;3.13;2.83;;;;;;;;;;1048401;28;20136;-91
2021/01/22 01:52:37;;;;;;;4.70;3.25;;;;;;;;;;1040222;28;20049;-91
2021/01/22 01:53:09;;;;;;;4.88;3.53;;;;;;;;;;1036041;28;20117;-90
2021/01/22 01:53:40;;;;;;;4.05;3.25;;;;;;;;;;1036215;28;20136;-91
2021/01/22 01:54:12;;;;;;;4.22;2.97;;;;;;;;;;1032109;28;20137;-91
2021/01/22 01:54:44;;;;;;;5.50;3.05;;;;;;;;;;1031863;28;20609;-89
2021/01/22 01:55:15;;;;;;;5.05;3.20;;;;;;;;;;1035226;28;20165;-89
2021/01/22 01:55:48;;;;;;;4.28;3.88;;;;;;;;;;1040314;28;20059;-90
2021/01/22 01:56:20;;;;;;;4.28;3.88;;;;;;;;;;1049492;28;20183;-90
2021/01/22 01:56:52;;;;;;;4.18;3.50;;;;;;;;;;1041362;28;20144;-89
2021/01/22 01:57:23;;;;;;;4.28;3.70;;;;;;;;;;1040225;28;20137;-90
2021/01/22 01:57:54;;;;;;;4.57;3.55;;;;;;;;;;1040102;28;20136;-89
2021/01/22 01:58:25;;;;;;;3.88;3.38;;;;;;;;;;1044518;28;20041;-91
2021/01/22 01:58:57;;;;;;;3.92;3.40;;;;;;;;;;1044011;28;20053;-89
2021/01/22 01:59:28;;;;;;;4.78;4.20;;;;;;;;;;1043845;28;20082;-90
2021/01/22 02:00:00;;;;;;;4.40;3.80;;;;;;;;;;1051099;28;20625;-89
2021/01/22 02:00:33;;;;;;;4.63;4.22;;;;;;;;;;1044228;28;20064;-90
2021/01/22 02:01:06;;;;;;;4.47;4.07;;;;;;;;;;1036212;28;20136;-90
2021/01/22 02:01:37;;;;;;;5.65;4.20;;;;;;;;;;1037608;28;20081;-92
2021/01/22 02:02:09;;;;;;;4.35;3.95;;;;;;;;;;1036697;28;20050;-89
2021/01/22 02:02:42;;;;;;;5.28;4.40;;;;;;;;;;1040139;28;20513;-91
2021/01/22 02:03:13;;;;;;;4.13;3.40;;;;;;;;;;1031869;28;20134;-88
2021/01/22 02:03:45;;;;;;;5.38;4.53;;;;;;;;;;1040969;28;20132;-89
2021/01/22 02:04:16;;;;;;;4.35;3.83;;;;;;;;;;1040859;28;20049;-85
2021/01/22 02:04:47;;;;;;;4.43;2.88;;;;;;;;;;1040825;28;20502;-88
2021/01/22 02:05:18;;;;;;;6.32;4.22;;;;;;;;;;1032602;28;20100;-89
2021/01/22 02:05:50;;;;;;;5.82;3.90;;;;;;;;;;1028935;28;20055;-90
2021/01/22 02:06:21;;;;;;;5.47;4.22;;;;;;;;;;1040763;28;20571;-89
2021/01/22 02:06:52;;;;;;;4.85;4.20;;;;;;;;;;1040930;28;20045;-89
2021/01/22 02:07:23;;;;;;;4.95;4.45;;;;;;;;;;1044929;28;20072;-89
2021/01/22 02:07:54;;;;;;;5.22;4.40;;;;;;;;;;1049330;28;20178;-92
2021/01/22 02:08:27;;;;;;;5.40;4.10;;;;;;;;;;1040800;28;20132;-88
2021/01/22 02:09:03;;;;;;;8.77;3.72;;;;;;;;;;1036893;28;20119;-89
2021/01/22 02:09:34;;;;;;;5.53;4.07;;;;;;;;;;1032740;28;20058;-90
2021/01/22 02:10:07;;;;;;;6.85;4.20;;;;;;;;;;1038148;28;20050;-87
2021/01/22 02:10:38;;;;;;;4.80;4.28;;;;;;;;;;1036876;28;20141;-88
2021/01/22 02:11:10;;;;;;;5.85;4.28;;;;;;;;;;1036222;28;20057;-89
2021/01/22 02:11:42;;;;;;;6.22;4.13;;;;;;;;;;1036911;28;20196;-89
2021/01/22 02:12:13;;;;;;;6.18;5.38;;;;;;;;;;1036716;28;20050;-89
2021/01/22 02:12:45;;;;;;;5.40;4.80;;;;;;;;;;1036807;28;20050;-89
2021/01/22 02:13:17;;;;;;;8.13;4.28;;;;;;;;;;1036500;28;20179;-90
2021/01/22 02:13:49;;;;;;;5.15;4.65;;;;;;;;;;1036645;28;20164;-89
2021/01/22 02:14:20;;;;;;;4.07;3.67;;;;;;;;;;1040841;28;20056;-87
2021/01/22 02:14:53;;;;;;;7.43;4.38;;;;;;;;;;1044902;28;20136;-87
2021/01/22 02:15:25;;;;;;;7.60;4.65;;;;;;;;;;1041092;28;20046;-89
2021/01/22 02:15:56;;;;;;;5.72;4.32;;;;;;;;;;1036963;28;20058;-89
2021/01/22 02:16:28;;;;;;;6.90;5.22;;;;;;;;;;1036754;28;20054;-91
2021/01/22 02:17:00;;;;;;;6.70;5.13;;;;;;;;;;1045223;28;20059;-93
2021/01/22 02:17:32;;;;;;;6.50;5.55;;;;;;;;;;1036752;28;20042;-90
2021/01/22 02:18:06;;;;;;;8.30;5.25;;;;;;;;;;1040860;28;20045;-88
2021/01/22 02:18:37;;;;;;;6.82;4.90;;;;;;;;;;1036628;28;20050;-89
2021/01/22 02:19:09;;;;;;;7.28;5.78;;;;;;;;;;1038302;28;20175;-90
2021/01/22 02:19:58;;;;;;;9.40;6.13;;;;;;;;;;1039447;28;20064;-89
2021/01/22 02:20:50;;;;;;;8.70;6.25;;;;;;;;;;1044806;28;20052;-89
2021/01/22 02:21:25;;;;;;;6.68;5.57;;;;;;;;;;1046323;28;20045;-90
2021/01/22 02:21:58;;;;;;;5.35;4.15;;;;;;;;;;1046213;28;20076;-88
2021/01/22 02:22:30;;;;;;;6.43;5.30;;;;;;;;;;1042490;28;20080;-89
2021/01/22 02:23:01;;;;;;;7.30;5.18;;;;;;;;;;1036548;28;20054;-89
2021/01/22 02:23:34;;;;;;;7.15;5.95;;;;;;;;;;1032740;28;20050;-88
2021/01/22 02:24:10;;;;;;;7.38;5.15;;;;;;;;;;1036571;28;20140;-91
2021/01/22 02:24:42;;;;;;;8.05;6.80;;;;;;;;;;1045003;28;20055;-88
2021/01/22 02:25:14;;;;;;;7.13;6.35;;;;;;;;;;1042076;28;20478;-89
2021/01/22 02:25:45;;;;;;;4.93;4.35;;;;;;;;;;1041259;28;20049;-84
2021/01/22 02:26:21;;;;;;;8.13;6.75;;;;;;;;;;1033094;28;20054;-89
2021/01/22 02:26:57;;;;;;;9.05;5.85;;;;;;;;;;1046157;28;20501;-88
2021/01/22 02:27:28;;;;;;;6.43;5.60;;;;;;;;;;1041515;28;20135;-89
2021/01/22 02:27:59;;;;;;;8.73;4.93;;;;;;;;;;1039813;28;20045;-87
2021/01/22 02:28:31;;;;;;;12.30;7.55;;;;;;;;;;1034880;28;20047;-89
2021/01/22 02:29:05;;;;;;;8.40;5.97;;;;;;;;;;1033743;28;20046;-89
2021/01/22 02:29:37;;;;;;;9.88;7.32;;;;;;;;;;1046017;28;20049;-89
2021/01/22 02:30:08;;;;;;;7.50;6.18;;;;;;;;;;1046230;28;20123;-88
2021/01/22 02:30:42;;;;;;;9.85;7.47;;;;;;;;;;1045461;28;20049;-91
2021/01/22 02:31:14;;;;;;;11.82;8.48;;;;;;;;;;1041210;28;20046;-90
2021/01/22 02:31:46;;;;;;;9.75;7.35;;;;;;;;;;1034183;28;20072;-90
2021/01/22 02:32:18;;;;;;;10.80;7.63;;;;;;;;;;1045504;28;20057;-89
2021/01/22 02:32:49;;;;;;;9.68;7.68;;;;;;;;;;1045787;28;20045;-90
2021/01/22 02:33:21;;;;;;;11.13;7.57;;;;;;;;;;1045085;28;20481;-89
2021/01/22 02:33:55;;;;;;;10.43;7.60;;;;;;;;;;1033007;28;20109;-88
2021/01/22 02:34:28;;;;;;;11.40;8.60;;;;;;;;;;1032846;28;20502;-89
2021/01/22 02:35:06;;;;;;;9.85;7.10;;;;;;;;;;1036937;28;20046;-88
2021/01/22 02:35:40;;;;;;;11.57;8.20;;;;;;;;;;1046579;28;20476;-88
2021/01/22 02:36:13;;;;;;;9.48;7.38;;;;;;;;;;1044955;28;20536;-88
2021/01/22 02:36:45;;;;;;;11.50;7.78;;;;;;;;;;1040660;28;20050;-86
2021/01/22 02:37:18;;;;;;;13.75;8.55;;;;;;;;;;1042461;28;20045;-90
2021/01/22 02:37:49;;;;;;;10.13;7.53;;;;;;;;;;1039265;28;20049;-89
2021/01/22 02:38:21;;;;;;;9.95;8.32;;;;;;;;;;1036623;28;20041;-90
2021/01/22 02:38:52;;;;;;;8.68;6.28;;;;;;;;;;1032727;28;20201;-91
2021/01/22 02:39:26;;;;;;;10.45;7.65;;;;;;;;;;1036540;28;20041;-91
2021/01/22 02:39:57;;;;;;;13.20;8.77;;;;;;;;;;1036611;28;20208;-90
2021/01/22 02:40:28;;;;;;;9.88;7.32;;;;;;;;;;1036794;28;20133;-92
2021/01/22 02:40:59;;;;;;;11.45;8.23;;;;;;;;;;1036689;28;20155;-87
2021/01/22 02:41:34;;;;;;;11.40;7.55;;;;;;;;;;1041007;28;20048;-89
2021/01/22 02:42:08;;;;;;;10.45;8.48;;;;;;;;;;1032589;28;20042;-89
2021/01/22 02:42:40;;;;;;;12.02;8.43;;;;;;;;;;1036677;28;20065;-87
2021/01/22 02:43:12;;;;;;;10.25;8.27;;;;;;;;;;1036906;28;20143;-89
2021/01/22 02:43:43;;;;;;;11.38;6.85;;;;;;;;;;1046275;28;20088;-87
2021/01/22 02:44:16;;;;;;;10.15;7.43;;;;;;;;;;1040810;28;20612;-89
2021/01/22 02:44:47;;;;;;;11.10;8.13;;;;;;;;;;1044455;28;20159;-87
2021/01/22 02:45:18;;;;;;;9.15;7.60;;;;;;;;;;1043690;28;20526;-88
2021/01/22 02:45:50;;;;;;;8.63;7.25;;;;;;;;;;1044726;28;20045;-88
2021/01/22 02:46:22;;;;;;;8.80;7.68;;;;;;;;;;1042118;28;20132;-88
2021/01/22 02:46:53;;;;;;;10.88;8.10;;;;;;;;;;1040591;28;20049;-88
2021/01/22 02:47:26;;;;;;;8.93;6.30;;;;;;;;;;1040434;28;20056;-87
2021/01/22 02:47:57;;;;;;;12.05;8.10;;;;;;;;;;1040571;28;20049;-87
2021/01/22 02:48:28;;;;;;;10.95;8.30;;;;;;;;;;1037367;28;20107;-89
2021/01/22 02:48:59;;;;;;;14.90;9.23;;;;;;;;;;1033350;28;20051;-90
2021/01/22 02:49:30;;;;;;;16.25;9.27;;;;;;;;;;1037749;28;20426;-89
2021/01/22 02:50:05;;;;;;;11.55;8.85;;;;;;;;;;1040960;28;20136;-86
2021/01/22 02:50:37;;;;;;;11.82;7.30;;;;;;;;;;1036647;28;20084;-88
2021/01/22 02:51:11;;;;;;;8.98;5.82;;;;;;;;;;1037328;28;20098;-89
2021/01/22 02:51:44;;;;;;;13.18;8.30;;;;;;;;;;1040781;28;20405;-90
2021/01/22 02:52:15;;;;;;;12.02;8.70;;;;;;;;;;1041504;28;20187;-88
2021/01/22 02:52:46;;;;;;;10.30;7.50;;;;;;;;;;1046704;28;20448;-88
2021/01/22 02:53:17;;;;;;;12.75;9.05;;;;;;;;;;1037452;28;20474;-88
2021/01/22 02:53:49;;;;;;;10.70;7.93;;;;;;;;;;1032620;28;20046;-88
2021/01/22 02:54:20;;;;;;;12.65;8.57;;;;;;;;;;1032533;28;20108;-88
2021/01/22 02:54:51;;;;;;;13.07;9.05;;;;;;;;;;1032527;28;20054;-89
2021/01/22 02:55:22;;;;;;;12.45;8.38;;;;;;;;;;1036903;28;20502;-89
2021/01/22 02:55:55;;;;;;;13.63;8.95;;;;;;;;;;1040720;28;20531;-88
2021/01/22 02:56:37;;;;;;;10.15;8.48;;;;;;;;;;1040499;28;20045;-88
2021/01/22 02:57:19;;;;;;;10.70;8.50;;;;;;;;;;1040722;28;20131;-89
2021/01/22 02:57:55;;;;;;;11.98;8.82;;;;;;;;;;1036831;28;20046;-89
2021/01/22 02:58:34;;;;;;;10.25;8.18;;;;;;;;;;1035190;28;20046;-88
2021/01/22 02:59:34;;;;;;;13.68;8.73;;;;;;;;;;1032242;28;20053;-89
2021/01/22 03:00:16;;;;;;;16.05;8.18;;;;;;;;;;1038648;28;20046;-88
2021/01/22 03:00:53;;;;;;;11.90;8.45;;;;;;;;;;1036620;28;20058;-89
2021/01/22 03:01:27;;;;;;;10.45;6.82;;;;;;;;;;1037105;28;20094;-88
2021/01/22 03:02:05;;;;;;;11.68;8.07;;;;;;;;;;1043591;28;20465;-89
2021/01/22 03:02:49;;;;;;;12.63;9.52;;;;;;;;;;1045864;28;20053;-88
2021/01/22 03:03:45;;;;;;;12.95;8.88;;;;;;;;;;1043766;28;20045;-88
2021/01/22 03:04:17;;;;;;;12.20;9.50;;;;;;;;;;1040739;28;20045;-88
2021/01/22 03:04:48;;;;;;;11.52;9.65;;;;;;;;;;1038084;28;20402;-89
2021/01/22 03:05:23;;;;;;;13.07;10.13;;;;;;;;;;1052739;28;20467;-88
2021/01/22 03:05:57;;;;;;;15.38;9.98;;;;;;;;;;1044877;28;20064;-88
2021/01/22 03:06:30;;;;;;;16.23;10.38;;;;;;;;;;1036668;28;20430;-89
2021/01/22 03:07:02;;;;;;;11.10;9.90;;;;;;;;;;1028277;28;20138;-88
2021/01/22 03:07:42;;;;;;;12.65;10.93;;;;;;;;;;1036669;28;20065;-89
2021/01/22 03:08:14;;;;;;;15.68;9.55;;;;;;;;;;1036617;28;20042;-88
2021/01/22 03:08:47;;;;;;;10.65;9.10;;;;;;;;;;1039447;28;20195;-88
2021/01/22 03:09:20;;;;;;;13.43;10.32;;;;;;;;;;1028463;28;20050;-88
2021/01/22 03:09:54;;;;;;;14.32;11.35;;;;;;;;;;1043776;28;20087;-89
2021/01/22 03:10:26;;;;;;;12.73;10.93;;;;;;;;;;1041381;28;20136;-89
2021/01/22 03:10:58;;;;;;;13.48;9.40;;;;;;;;;;1049079;28;20051;-90
2021/01/22 03:11:29;;;;;;;15.45;11.02;;;;;;;;;;1040715;28;20045;-88
2021/01/22 03:12:01;;;;;;;14.23;11.25;;;;;;;;;;1037337;28;20049;-89